AAL809 KMCO-TJSJ
Flight info
| Callsign | AAL809 |
|---|---|
| Flight time | 2h 13m |
| Altitude | 35000 |
| Route | DDANY3 JIPOD DCT VENDS Y185 RENAH Y355 PLING RTE7 SAALR |
| Aircraft | A320/M-SDE3FGHIRWY/LB1 |
Departure
| Time | 2026-04-21 21:41 |
|---|---|
| Airport | Orlando International Airport (KMCO) |
Arrival
| Time | 2026-04-21 23:54 |
|---|---|
| Airport | Luis Munoz Marin International Airport (TJSJ) |
| Time | Latitude | Longitude | Altitude | Speed | Heading |
|---|---|---|---|---|---|
| 2026-04-21 21:28 | 28.42864 | -81.31508 | 95 ft | 0 kts | 211° |
| 2026-04-21 21:32 | 28.42874 | -81.31501 | 96 ft | 3 kts | 215° |
| 2026-04-21 21:32 | 28.42890 | -81.31487 | 94 ft | 3 kts | 227° |
| 2026-04-21 21:32 | 28.42902 | -81.31469 | 94 ft | 3 kts | 248° |
| 2026-04-21 21:33 | 28.42906 | -81.31450 | 95 ft | 3 kts | 289° |
| 2026-04-21 21:33 | 28.42903 | -81.31443 | 92 ft | 0 kts | 302° |
| 2026-04-21 21:34 | 28.42907 | -81.31449 | 94 ft | 5 kts | 302° |
| 2026-04-21 21:35 | 28.42953 | -81.31549 | 95 ft | 19 kts | 275° |
| 2026-04-21 21:35 | 28.42907 | -81.31690 | 96 ft | 15 kts | 201° |
| 2026-04-21 21:35 | 28.42810 | -81.31678 | 97 ft | 17 kts | 167° |
| 2026-04-21 21:35 | 28.42669 | -81.31642 | 96 ft | 24 kts | 168° |
| 2026-04-21 21:36 | 28.42495 | -81.31609 | 97 ft | 21 kts | 196° |
| 2026-04-21 21:36 | 28.42367 | -81.31668 | 99 ft | 21 kts | 176° |
| 2026-04-21 21:36 | 28.42268 | -81.31610 | 98 ft | 17 kts | 97° |
| 2026-04-21 21:36 | 28.42270 | -81.31444 | 96 ft | 27 kts | 90° |
| 2026-04-21 21:37 | 28.42264 | -81.31198 | 95 ft | 35 kts | 99° |
| 2026-04-21 21:37 | 28.42236 | -81.30913 | 96 ft | 35 kts | 80° |
| 2026-04-21 21:37 | 28.42258 | -81.30632 | 99 ft | 36 kts | 85° |
| 2026-04-21 21:37 | 28.42276 | -81.30341 | 95 ft | 38 kts | 87° |
| 2026-04-21 21:38 | 28.42277 | -81.30080 | 95 ft | 32 kts | 88° |
| 2026-04-21 21:38 | 28.42274 | -81.29827 | 95 ft | 23 kts | 126° |
| 2026-04-21 21:38 | 28.42143 | -81.29791 | 97 ft | 22 kts | 178° |
| 2026-04-21 21:38 | 28.41978 | -81.29789 | 96 ft | 25 kts | 180° |
| 2026-04-21 21:39 | 28.41786 | -81.29787 | 95 ft | 29 kts | 180° |
| 2026-04-21 21:39 | 28.41576 | -81.29785 | 95 ft | 32 kts | 180° |
| 2026-04-21 21:39 | 28.41346 | -81.29781 | 95 ft | 34 kts | 179° |
| 2026-04-21 21:39 | 28.41099 | -81.29779 | 95 ft | 37 kts | 179° |
| 2026-04-21 21:40 | 28.40875 | -81.29776 | 95 ft | 18 kts | 182° |
| 2026-04-21 21:40 | 28.40820 | -81.29689 | 94 ft | 17 kts | 87° |
| 2026-04-21 21:40 | 28.40826 | -81.29567 | 94 ft | 11 kts | 60° |
| 2026-04-21 21:40 | 28.40881 | -81.29560 | 94 ft | 12 kts | 360° |
| 2026-04-21 21:41 | 28.41261 | -81.29558 | 96 ft | 105 kts | 358° |
| 2026-04-21 21:41 | 28.42282 | -81.29594 | 197 ft | 178 kts | 4° |
| 2026-04-21 21:41 | 28.43613 | -81.29651 | 961 ft | 203 kts | 4° |
| 2026-04-21 21:41 | 28.45075 | -81.29494 | 1798 ft | 222 kts | 26° |
| 2026-04-21 21:42 | 28.46288 | -81.28351 | 2813 ft | 234 kts | 52° |
| 2026-04-21 21:42 | 28.47301 | -81.26867 | 3793 ft | 243 kts | 56° |
| 2026-04-21 21:42 | 28.48287 | -81.25264 | 4625 ft | 250 kts | 57° |
| 2026-04-21 21:42 | 28.49282 | -81.23633 | 4921 ft | 252 kts | 57° |
| 2026-04-21 21:43 | 28.50229 | -81.21958 | 5002 ft | 252 kts | 67° |
| 2026-04-21 21:43 | 28.50647 | -81.20046 | 4995 ft | 250 kts | 80° |
| 2026-04-21 21:43 | 28.50959 | -81.18087 | 4996 ft | 252 kts | 79° |
| 2026-04-21 21:43 | 28.51028 | -81.16114 | 5033 ft | 250 kts | 99° |
| 2026-04-21 21:44 | 28.50586 | -81.14190 | 5548 ft | 254 kts | 103° |
| 2026-04-21 21:44 | 28.50135 | -81.12225 | 6509 ft | 260 kts | 102° |
| 2026-04-21 21:44 | 28.49684 | -81.10214 | 7409 ft | 267 kts | 102° |
| 2026-04-21 21:44 | 28.49221 | -81.08139 | 8308 ft | 275 kts | 102° |
| 2026-04-21 21:45 | 28.48647 | -81.06040 | 9163 ft | 285 kts | 112° |
| 2026-04-21 21:45 | 28.47553 | -81.04130 | 10047 ft | 294 kts | 131° |
| 2026-04-21 21:45 | 28.45989 | -81.02564 | 10726 ft | 308 kts | 140° |
| 2026-04-21 21:45 | 28.44249 | -81.00983 | 11230 ft | 325 kts | 140° |
| 2026-04-21 21:46 | 28.43054 | -80.99901 | 11543 ft | 337 kts | 140° |
| 2026-04-21 21:46 | 28.41175 | -80.98200 | 11981 ft | 354 kts | 141° |
| 2026-04-21 21:46 | 28.38569 | -80.95834 | 12813 ft | 367 kts | 140° |
| 2026-04-21 21:46 | 28.37219 | -80.94607 | 13317 ft | 370 kts | 140° |
| 2026-04-21 21:47 | 28.35192 | -80.92763 | 14064 ft | 376 kts | 140° |
| 2026-04-21 21:47 | 28.33137 | -80.90892 | 14713 ft | 381 kts | 141° |
| 2026-04-21 21:47 | 28.31057 | -80.88998 | 15366 ft | 386 kts | 141° |
| 2026-04-21 21:47 | 28.29098 | -80.86904 | 16021 ft | 390 kts | 130° |
| 2026-04-21 21:48 | 28.27497 | -80.84411 | 16646 ft | 393 kts | 120° |
| 2026-04-21 21:48 | 28.26307 | -80.81606 | 17294 ft | 397 kts | 111° |
| 2026-04-21 21:48 | 28.25271 | -80.78684 | 17950 ft | 401 kts | 111° |
| 2026-04-21 21:48 | 28.24217 | -80.75730 | 18598 ft | 406 kts | 111° |
| 2026-04-21 21:49 | 28.23146 | -80.72755 | 19174 ft | 411 kts | 111° |
| 2026-04-21 21:49 | 28.22053 | -80.69731 | 19763 ft | 416 kts | 111° |
| 2026-04-21 21:49 | 28.20947 | -80.66674 | 20322 ft | 422 kts | 111° |
| 2026-04-21 21:49 | 28.19865 | -80.63563 | 20893 ft | 428 kts | 110° |
| 2026-04-21 21:50 | 28.18809 | -80.60386 | 21436 ft | 433 kts | 109° |
| 2026-04-21 21:50 | 28.17764 | -80.57160 | 21973 ft | 439 kts | 109° |
| 2026-04-21 21:50 | 28.16710 | -80.53887 | 22494 ft | 444 kts | 109° |
| 2026-04-21 21:50 | 28.15639 | -80.50581 | 23000 ft | 450 kts | 109° |
| 2026-04-21 21:51 | 28.14532 | -80.47193 | 23510 ft | 455 kts | 109° |
| 2026-04-21 21:51 | 28.13418 | -80.43822 | 23982 ft | 460 kts | 109° |
| 2026-04-21 21:51 | 28.12300 | -80.40456 | 24390 ft | 464 kts | 109° |
| 2026-04-21 21:51 | 28.11141 | -80.36978 | 24853 ft | 467 kts | 109° |
| 2026-04-21 21:52 | 28.09989 | -80.33529 | 25284 ft | 470 kts | 109° |
| 2026-04-21 21:52 | 28.08829 | -80.30052 | 25709 ft | 473 kts | 109° |
| 2026-04-21 21:52 | 28.07662 | -80.26559 | 26136 ft | 476 kts | 109° |
| 2026-04-21 21:52 | 28.06489 | -80.23049 | 26543 ft | 479 kts | 109° |
| 2026-04-21 21:53 | 28.05304 | -80.19508 | 26950 ft | 482 kts | 109° |
| 2026-04-21 21:53 | 28.04108 | -80.15947 | 27343 ft | 485 kts | 109° |
| 2026-04-21 21:53 | 28.02902 | -80.12369 | 27750 ft | 488 kts | 109° |
| 2026-04-21 21:53 | 28.01691 | -80.08775 | 28140 ft | 491 kts | 109° |
| 2026-04-21 21:54 | 28.00472 | -80.05150 | 28528 ft | 494 kts | 109° |
| 2026-04-21 21:54 | 27.99251 | -80.01508 | 28913 ft | 497 kts | 108° |
| 2026-04-21 21:54 | 27.98019 | -79.97833 | 29287 ft | 500 kts | 108° |
| 2026-04-21 21:54 | 27.96776 | -79.94137 | 29654 ft | 504 kts | 108° |
| 2026-04-21 21:55 | 27.95524 | -79.90434 | 30010 ft | 507 kts | 109° |
| 2026-04-21 21:55 | 27.94256 | -79.86695 | 30351 ft | 510 kts | 108° |
| 2026-04-21 21:55 | 27.92986 | -79.82947 | 30645 ft | 513 kts | 108° |
| 2026-04-21 21:55 | 27.91707 | -79.79177 | 30953 ft | 515 kts | 109° |
| 2026-04-21 21:56 | 27.90420 | -79.75388 | 31274 ft | 516 kts | 109° |
| 2026-04-21 21:56 | 27.89137 | -79.71615 | 31688 ft | 514 kts | 108° |
| 2026-04-21 21:56 | 27.87854 | -79.67834 | 32123 ft | 513 kts | 108° |
| 2026-04-21 21:56 | 27.86582 | -79.64087 | 32556 ft | 512 kts | 108° |
| 2026-04-21 21:57 | 27.85299 | -79.60331 | 32987 ft | 511 kts | 109° |
| 2026-04-21 21:57 | 27.84018 | -79.56598 | 33420 ft | 510 kts | 109° |
| 2026-04-21 21:57 | 27.82736 | -79.52856 | 33857 ft | 509 kts | 108° |
| 2026-04-21 21:57 | 27.81464 | -79.49129 | 34288 ft | 508 kts | 108° |
| 2026-04-21 21:58 | 27.80194 | -79.45408 | 34665 ft | 508 kts | 109° |
| 2026-04-21 21:58 | 27.78921 | -79.41678 | 34994 ft | 509 kts | 109° |
| 2026-04-21 21:58 | 27.77626 | -79.37893 | 35224 ft | 512 kts | 109° |
| 2026-04-21 21:59 | 27.75073 | -79.30450 | 35282 ft | 511 kts | 109° |
| 2026-04-21 21:59 | 27.72483 | -79.22923 | 35276 ft | 511 kts | 109° |
| 2026-04-21 22:00 | 27.69915 | -79.15440 | 35275 ft | 512 kts | 109° |
| 2026-04-21 22:00 | 27.67333 | -79.07960 | 35271 ft | 512 kts | 110° |
| 2026-04-21 22:01 | 27.64740 | -79.00480 | 35277 ft | 512 kts | 110° |
| 2026-04-21 22:01 | 27.62143 | -78.92990 | 35273 ft | 512 kts | 110° |
| 2026-04-21 22:02 | 27.59545 | -78.85517 | 35281 ft | 512 kts | 110° |
| 2026-04-21 22:02 | 27.56942 | -78.78040 | 35279 ft | 512 kts | 110° |
| 2026-04-21 22:03 | 27.54558 | -78.71187 | 35281 ft | 512 kts | 110° |
| 2026-04-21 22:03 | 27.51949 | -78.63705 | 35282 ft | 512 kts | 110° |
| 2026-04-21 22:04 | 27.49333 | -78.56241 | 35280 ft | 512 kts | 110° |
| 2026-04-21 22:04 | 27.46714 | -78.48787 | 35280 ft | 512 kts | 110° |
| 2026-04-21 22:05 | 27.44091 | -78.41329 | 35275 ft | 513 kts | 111° |
| 2026-04-21 22:05 | 27.41463 | -78.33874 | 35271 ft | 513 kts | 111° |
| 2026-04-21 22:06 | 27.38828 | -78.26411 | 35273 ft | 513 kts | 111° |
| 2026-04-21 22:06 | 27.36198 | -78.18954 | 35268 ft | 512 kts | 111° |
| 2026-04-21 22:07 | 27.33272 | -78.11602 | 35271 ft | 512 kts | 122° |
| 2026-04-21 22:07 | 27.29355 | -78.04918 | 35268 ft | 512 kts | 124° |
| 2026-04-21 22:08 | 27.25410 | -77.98244 | 35274 ft | 512 kts | 124° |
| 2026-04-21 22:08 | 27.21467 | -77.91569 | 35275 ft | 513 kts | 125° |
| 2026-04-21 22:09 | 27.17519 | -77.84899 | 35272 ft | 513 kts | 125° |
| 2026-04-21 22:09 | 27.13568 | -77.78238 | 35275 ft | 512 kts | 125° |
| 2026-04-21 22:10 | 27.09607 | -77.71582 | 35282 ft | 513 kts | 125° |
| 2026-04-21 22:10 | 27.05641 | -77.64932 | 35276 ft | 513 kts | 125° |
| 2026-04-21 22:11 | 27.01677 | -77.58296 | 35267 ft | 513 kts | 126° |
| 2026-04-21 22:11 | 26.97736 | -77.51621 | 35277 ft | 513 kts | 124° |
| 2026-04-21 22:12 | 26.93855 | -77.44911 | 35270 ft | 513 kts | 124° |
| 2026-04-21 22:12 | 26.89968 | -77.38202 | 35261 ft | 513 kts | 125° |
| 2026-04-21 22:13 | 26.86060 | -77.31515 | 35259 ft | 513 kts | 125° |
| 2026-04-21 22:13 | 26.82145 | -77.24841 | 35264 ft | 513 kts | 125° |
| 2026-04-21 22:14 | 26.78226 | -77.18158 | 35260 ft | 513 kts | 125° |
| 2026-04-21 22:14 | 26.74283 | -77.11435 | 35254 ft | 513 kts | 126° |
| 2026-04-21 22:15 | 26.70359 | -77.04764 | 35247 ft | 513 kts | 126° |
| 2026-04-21 22:15 | 26.66434 | -76.98102 | 35252 ft | 513 kts | 126° |
| 2026-04-21 22:16 | 26.62510 | -76.91443 | 35245 ft | 513 kts | 126° |
| 2026-04-21 22:16 | 26.58580 | -76.84782 | 35246 ft | 513 kts | 126° |
| 2026-04-21 22:17 | 26.54639 | -76.78134 | 35239 ft | 513 kts | 126° |
| 2026-04-21 22:17 | 26.50690 | -76.71482 | 35236 ft | 513 kts | 126° |
| 2026-04-21 22:18 | 26.46750 | -76.64831 | 35236 ft | 514 kts | 126° |
| 2026-04-21 22:18 | 26.42802 | -76.58177 | 35232 ft | 514 kts | 127° |
| 2026-04-21 22:19 | 26.38854 | -76.51547 | 35232 ft | 514 kts | 127° |
| 2026-04-21 22:19 | 26.35537 | -76.45981 | 35228 ft | 514 kts | 127° |
| 2026-04-21 22:20 | 26.31581 | -76.39359 | 35228 ft | 514 kts | 127° |
| 2026-04-21 22:20 | 26.27618 | -76.32732 | 35229 ft | 514 kts | 127° |
| 2026-04-21 22:21 | 26.23659 | -76.26111 | 35229 ft | 513 kts | 127° |
| 2026-04-21 22:21 | 26.19700 | -76.19496 | 35225 ft | 513 kts | 127° |
| 2026-04-21 22:22 | 26.15739 | -76.12888 | 35218 ft | 513 kts | 127° |
| 2026-04-21 22:22 | 26.11766 | -76.06287 | 35220 ft | 513 kts | 127° |
| 2026-04-21 22:23 | 26.07799 | -75.99691 | 35215 ft | 513 kts | 127° |
| 2026-04-21 22:23 | 26.03835 | -75.93105 | 35217 ft | 513 kts | 127° |
| 2026-04-21 22:24 | 25.99861 | -75.86514 | 35214 ft | 513 kts | 127° |
| 2026-04-21 22:24 | 25.95884 | -75.79940 | 35213 ft | 513 kts | 127° |
| 2026-04-21 22:25 | 25.91900 | -75.73369 | 35209 ft | 513 kts | 127° |
| 2026-04-21 22:25 | 25.87921 | -75.66799 | 35210 ft | 513 kts | 127° |
| 2026-04-21 22:26 | 25.83909 | -75.60183 | 35207 ft | 513 kts | 127° |
| 2026-04-21 22:26 | 25.79945 | -75.53660 | 35209 ft | 513 kts | 127° |
| 2026-04-21 22:27 | 25.75952 | -75.47099 | 35208 ft | 513 kts | 127° |
| 2026-04-21 22:27 | 25.71928 | -75.40497 | 35208 ft | 513 kts | 127° |
| 2026-04-21 22:28 | 25.67930 | -75.33949 | 35206 ft | 513 kts | 128° |
| 2026-04-21 22:28 | 25.63926 | -75.27397 | 35203 ft | 513 kts | 127° |
| 2026-04-21 22:29 | 25.59928 | -75.20857 | 35200 ft | 513 kts | 128° |
| 2026-04-21 22:29 | 25.55906 | -75.14317 | 35195 ft | 513 kts | 128° |
| 2026-04-21 22:30 | 25.51890 | -75.07779 | 35190 ft | 513 kts | 128° |
| 2026-04-21 22:30 | 25.47872 | -75.01238 | 35189 ft | 514 kts | 128° |
| 2026-04-21 22:31 | 25.43854 | -74.94706 | 35187 ft | 514 kts | 128° |
| 2026-04-21 22:31 | 25.39826 | -74.88166 | 35184 ft | 514 kts | 128° |
| 2026-04-21 22:32 | 25.35798 | -74.81635 | 35182 ft | 514 kts | 128° |
| 2026-04-21 22:32 | 25.31755 | -74.75107 | 35182 ft | 515 kts | 128° |
| 2026-04-21 22:33 | 25.27711 | -74.68587 | 35178 ft | 514 kts | 128° |
| 2026-04-21 22:33 | 25.23660 | -74.62055 | 35180 ft | 515 kts | 128° |
| 2026-04-21 22:34 | 25.19615 | -74.55532 | 35183 ft | 515 kts | 128° |
| 2026-04-21 22:34 | 25.15542 | -74.48970 | 35180 ft | 515 kts | 128° |
| 2026-04-21 22:35 | 25.11485 | -74.42442 | 35176 ft | 515 kts | 128° |
| 2026-04-21 22:35 | 25.07424 | -74.35921 | 35182 ft | 516 kts | 128° |
| 2026-04-21 22:36 | 25.01309 | -74.26149 | 35174 ft | 516 kts | 128° |
| 2026-04-21 22:36 | 24.97237 | -74.19629 | 35174 ft | 516 kts | 128° |
| 2026-04-21 22:37 | 24.93165 | -74.13119 | 35169 ft | 517 kts | 128° |
| 2026-04-21 22:37 | 24.89078 | -74.06604 | 35169 ft | 517 kts | 129° |
| 2026-04-21 22:38 | 24.84978 | -74.00100 | 35161 ft | 517 kts | 129° |
| 2026-04-21 22:38 | 24.80888 | -73.93586 | 35160 ft | 517 kts | 128° |
| 2026-04-21 22:39 | 24.76789 | -73.87075 | 35155 ft | 517 kts | 129° |
| 2026-04-21 22:39 | 24.72698 | -73.80570 | 35150 ft | 517 kts | 128° |
| 2026-04-21 22:40 | 24.68594 | -73.74060 | 35151 ft | 518 kts | 129° |
| 2026-04-21 22:40 | 24.64482 | -73.67562 | 35153 ft | 517 kts | 129° |
| 2026-04-21 22:41 | 24.60367 | -73.61074 | 35153 ft | 518 kts | 129° |
| 2026-04-21 22:41 | 24.56224 | -73.54540 | 35155 ft | 518 kts | 128° |
| 2026-04-21 22:42 | 24.52430 | -73.47853 | 35162 ft | 520 kts | 123° |
| 2026-04-21 22:42 | 24.48839 | -73.40894 | 35162 ft | 521 kts | 122° |
| 2026-04-21 22:43 | 24.45254 | -73.34008 | 35160 ft | 519 kts | 123° |
| 2026-04-21 22:43 | 24.41564 | -73.27198 | 35149 ft | 519 kts | 124° |
| 2026-04-21 22:44 | 24.37836 | -73.20403 | 35147 ft | 519 kts | 124° |
| 2026-04-21 22:44 | 24.34130 | -73.13611 | 35142 ft | 519 kts | 124° |
| 2026-04-21 22:45 | 24.30434 | -73.06819 | 35138 ft | 519 kts | 124° |
| 2026-04-21 22:45 | 24.26738 | -73.00032 | 35139 ft | 519 kts | 124° |
| 2026-04-21 22:46 | 24.23039 | -72.93246 | 35147 ft | 518 kts | 124° |
| 2026-04-21 22:46 | 24.19343 | -72.86479 | 35142 ft | 518 kts | 124° |
| 2026-04-21 22:47 | 24.15644 | -72.79713 | 35144 ft | 518 kts | 124° |
| 2026-04-21 22:47 | 24.11938 | -72.72949 | 35145 ft | 517 kts | 124° |
| 2026-04-21 22:48 | 24.08239 | -72.66190 | 35142 ft | 517 kts | 124° |
| 2026-04-21 22:48 | 24.04534 | -72.59458 | 35134 ft | 517 kts | 124° |
| 2026-04-21 22:49 | 24.00811 | -72.52685 | 35129 ft | 516 kts | 124° |
| 2026-04-21 22:49 | 23.97109 | -72.45963 | 35127 ft | 516 kts | 124° |
| 2026-04-21 22:50 | 23.93401 | -72.39257 | 35125 ft | 515 kts | 124° |
| 2026-04-21 22:50 | 23.89687 | -72.32541 | 35120 ft | 515 kts | 124° |
| 2026-04-21 22:51 | 23.85986 | -72.25850 | 35122 ft | 514 kts | 123° |
| 2026-04-21 22:51 | 23.82297 | -72.19160 | 35121 ft | 514 kts | 123° |
| 2026-04-21 22:52 | 23.79218 | -72.13604 | 35122 ft | 519 kts | 123° |
| 2026-04-21 22:52 | 23.75432 | -72.06800 | 35125 ft | 526 kts | 123° |
| 2026-04-21 22:53 | 23.71640 | -71.99977 | 35122 ft | 525 kts | 123° |
| 2026-04-21 22:53 | 23.67843 | -71.93161 | 35122 ft | 525 kts | 123° |
| 2026-04-21 22:54 | 23.64044 | -71.86365 | 35119 ft | 525 kts | 123° |
| 2026-04-21 22:54 | 23.60134 | -71.79595 | 35114 ft | 522 kts | 129° |
| 2026-04-21 22:55 | 23.55797 | -71.73328 | 35111 ft | 521 kts | 130° |
| 2026-04-21 22:55 | 23.51397 | -71.66981 | 35112 ft | 521 kts | 130° |
| 2026-04-21 22:56 | 23.47032 | -71.60693 | 35112 ft | 520 kts | 130° |
| 2026-04-21 22:56 | 23.42675 | -71.54407 | 35104 ft | 520 kts | 129° |
| 2026-04-21 22:57 | 23.38317 | -71.48137 | 35104 ft | 519 kts | 130° |
| 2026-04-21 22:57 | 23.33954 | -71.41885 | 35099 ft | 519 kts | 130° |
| 2026-04-21 22:58 | 23.29599 | -71.35630 | 35104 ft | 518 kts | 130° |
| 2026-04-21 22:58 | 23.25249 | -71.29383 | 35104 ft | 517 kts | 130° |
| 2026-04-21 22:59 | 23.20894 | -71.23156 | 35101 ft | 517 kts | 130° |
| 2026-04-21 22:59 | 23.16540 | -71.16943 | 35097 ft | 516 kts | 130° |
| 2026-04-21 23:00 | 23.12197 | -71.10731 | 35096 ft | 516 kts | 130° |
| 2026-04-21 23:00 | 23.07854 | -71.04539 | 35092 ft | 516 kts | 130° |
| 2026-04-21 23:01 | 23.03472 | -70.98291 | 35089 ft | 516 kts | 130° |
| 2026-04-21 23:01 | 22.99122 | -70.92100 | 35085 ft | 516 kts | 130° |
| 2026-04-21 23:02 | 22.94765 | -70.85920 | 35085 ft | 515 kts | 130° |
| 2026-04-21 23:02 | 22.90410 | -70.79746 | 35085 ft | 515 kts | 130° |
| 2026-04-21 23:03 | 22.86055 | -70.73585 | 35084 ft | 515 kts | 130° |
| 2026-04-21 23:03 | 22.81690 | -70.67422 | 35085 ft | 515 kts | 130° |
| 2026-04-21 23:04 | 22.77323 | -70.61260 | 35086 ft | 515 kts | 130° |
| 2026-04-21 23:04 | 22.72961 | -70.55107 | 35086 ft | 515 kts | 130° |
| 2026-04-21 23:05 | 22.68582 | -70.48942 | 35091 ft | 516 kts | 130° |
| 2026-04-21 23:05 | 22.64208 | -70.42796 | 35093 ft | 516 kts | 130° |
| 2026-04-21 23:06 | 22.59821 | -70.36647 | 35095 ft | 516 kts | 130° |
| 2026-04-21 23:06 | 22.55433 | -70.30502 | 35083 ft | 516 kts | 130° |
| 2026-04-21 23:07 | 22.51042 | -70.24351 | 35080 ft | 517 kts | 129° |
| 2026-04-21 23:07 | 22.46649 | -70.18189 | 35075 ft | 518 kts | 129° |
| 2026-04-21 23:08 | 22.42238 | -70.12018 | 35075 ft | 519 kts | 129° |
| 2026-04-21 23:08 | 22.37819 | -70.05848 | 35086 ft | 519 kts | 129° |
| 2026-04-21 23:09 | 22.33392 | -69.99678 | 35079 ft | 520 kts | 129° |
| 2026-04-21 23:09 | 22.28927 | -69.93470 | 35083 ft | 520 kts | 129° |
| 2026-04-21 23:10 | 22.24500 | -69.87295 | 35086 ft | 521 kts | 129° |
| 2026-04-21 23:10 | 22.20069 | -69.81123 | 35083 ft | 520 kts | 129° |
| 2026-04-21 23:11 | 22.15615 | -69.74948 | 35069 ft | 521 kts | 129° |
| 2026-04-21 23:11 | 22.11160 | -69.68780 | 35064 ft | 522 kts | 129° |
| 2026-04-21 23:12 | 22.06704 | -69.62603 | 35058 ft | 522 kts | 129° |
| 2026-04-21 23:12 | 22.02241 | -69.56427 | 35066 ft | 522 kts | 129° |
| 2026-04-21 23:13 | 21.97760 | -69.50255 | 35062 ft | 523 kts | 129° |
| 2026-04-21 23:13 | 21.93285 | -69.44088 | 35067 ft | 523 kts | 129° |
| 2026-04-21 23:14 | 21.88812 | -69.37903 | 35078 ft | 523 kts | 129° |
| 2026-04-21 23:14 | 21.84328 | -69.31730 | 35076 ft | 523 kts | 129° |
| 2026-04-21 23:15 | 21.79843 | -69.25576 | 35071 ft | 523 kts | 129° |
| 2026-04-21 23:15 | 21.75359 | -69.19402 | 35076 ft | 523 kts | 129° |
| 2026-04-21 23:16 | 21.70881 | -69.13250 | 35070 ft | 523 kts | 129° |
| 2026-04-21 23:16 | 21.66387 | -69.07106 | 35068 ft | 522 kts | 130° |
| 2026-04-21 23:17 | 21.61868 | -69.00932 | 35064 ft | 522 kts | 130° |
| 2026-04-21 23:17 | 21.57386 | -68.94802 | 35067 ft | 522 kts | 129° |
| 2026-04-21 23:18 | 21.52901 | -68.88669 | 35063 ft | 522 kts | 130° |
| 2026-04-21 23:18 | 21.48417 | -68.82540 | 35059 ft | 521 kts | 129° |
| 2026-04-21 23:19 | 21.43933 | -68.76422 | 35061 ft | 521 kts | 130° |
| 2026-04-21 23:19 | 21.39443 | -68.70309 | 35064 ft | 521 kts | 130° |
| 2026-04-21 23:20 | 21.34954 | -68.64211 | 35055 ft | 521 kts | 130° |
| 2026-04-21 23:20 | 21.30467 | -68.58120 | 35055 ft | 520 kts | 130° |
| 2026-04-21 23:21 | 21.25985 | -68.52040 | 35049 ft | 520 kts | 130° |
| 2026-04-21 23:21 | 21.21495 | -68.45955 | 35051 ft | 520 kts | 130° |
| 2026-04-21 23:22 | 21.16992 | -68.39867 | 35045 ft | 520 kts | 130° |
| 2026-04-21 23:22 | 21.12503 | -68.33795 | 35047 ft | 520 kts | 130° |
| 2026-04-21 23:23 | 21.08011 | -68.27706 | 35050 ft | 521 kts | 130° |
| 2026-04-21 23:23 | 21.03524 | -68.21645 | 35060 ft | 520 kts | 130° |
| 2026-04-21 23:24 | 20.98993 | -68.15556 | 35063 ft | 529 kts | 133° |
| 2026-04-21 23:24 | 20.95153 | -68.10396 | 35058 ft | 529 kts | 133° |
| 2026-04-21 23:25 | 20.90570 | -68.04222 | 35060 ft | 529 kts | 133° |
| 2026-04-21 23:25 | 20.85993 | -67.98062 | 35058 ft | 529 kts | 133° |
| 2026-04-21 23:26 | 20.81442 | -67.91867 | 35060 ft | 530 kts | 132° |
| 2026-04-21 23:26 | 20.76940 | -67.85633 | 35064 ft | 530 kts | 132° |
| 2026-04-21 23:27 | 20.72433 | -67.79397 | 35060 ft | 529 kts | 132° |
| 2026-04-21 23:27 | 20.67911 | -67.73200 | 35055 ft | 529 kts | 132° |
| 2026-04-21 23:28 | 20.63382 | -67.67006 | 35052 ft | 529 kts | 132° |
| 2026-04-21 23:28 | 20.58865 | -67.60821 | 35053 ft | 529 kts | 132° |
| 2026-04-21 23:29 | 20.54338 | -67.54634 | 35053 ft | 529 kts | 132° |
| 2026-04-21 23:29 | 20.49812 | -67.48450 | 35063 ft | 528 kts | 132° |
| 2026-04-21 23:30 | 20.45269 | -67.42244 | 35063 ft | 528 kts | 132° |
| 2026-04-21 23:30 | 20.40741 | -67.36085 | 35054 ft | 527 kts | 132° |
| 2026-04-21 23:31 | 20.36221 | -67.29931 | 35057 ft | 527 kts | 132° |
| 2026-04-21 23:31 | 20.31702 | -67.23781 | 35051 ft | 527 kts | 132° |
| 2026-04-21 23:32 | 20.27188 | -67.17642 | 35049 ft | 527 kts | 132° |
| 2026-04-21 23:32 | 20.22662 | -67.11502 | 35048 ft | 527 kts | 132° |
| 2026-04-21 23:33 | 20.18133 | -67.05373 | 35048 ft | 526 kts | 132° |
| 2026-04-21 23:33 | 20.13617 | -66.99246 | 35047 ft | 526 kts | 132° |
| 2026-04-21 23:34 | 20.09101 | -66.93128 | 35046 ft | 526 kts | 132° |
| 2026-04-21 23:34 | 20.04572 | -66.87023 | 35044 ft | 525 kts | 132° |
| 2026-04-21 23:35 | 19.99799 | -66.81211 | 35035 ft | 517 kts | 143° |
| 2026-04-21 23:35 | 19.93940 | -66.76990 | 35033 ft | 503 kts | 160° |
| 2026-04-21 23:36 | 19.87666 | -66.73700 | 35036 ft | 503 kts | 160° |
| 2026-04-21 23:36 | 19.81411 | -66.70391 | 34998 ft | 503 kts | 160° |
| 2026-04-21 23:37 | 19.78246 | -66.68717 | 34564 ft | 500 kts | 160° |
| 2026-04-21 23:37 | 19.75184 | -66.67102 | 33976 ft | 505 kts | 160° |
| 2026-04-21 23:37 | 19.72027 | -66.65445 | 32790 ft | 508 kts | 160° |
| 2026-04-21 23:37 | 19.68825 | -66.63768 | 31600 ft | 510 kts | 159° |
| 2026-04-21 23:38 | 19.65643 | -66.62103 | 30502 ft | 510 kts | 159° |
| 2026-04-21 23:38 | 19.62498 | -66.60449 | 29913 ft | 498 kts | 159° |
| 2026-04-21 23:38 | 19.59427 | -66.58827 | 29206 ft | 489 kts | 159° |
| 2026-04-21 23:38 | 19.56367 | -66.57216 | 28072 ft | 490 kts | 159° |
| 2026-04-21 23:39 | 19.53331 | -66.55622 | 27303 ft | 484 kts | 158° |
| 2026-04-21 23:39 | 19.50351 | -66.54053 | 26555 ft | 477 kts | 158° |
| 2026-04-21 23:39 | 19.47402 | -66.52501 | 25798 ft | 471 kts | 158° |
| 2026-04-21 23:39 | 19.44474 | -66.50963 | 25060 ft | 466 kts | 158° |
| 2026-04-21 23:40 | 19.41593 | -66.49449 | 24333 ft | 461 kts | 158° |
| 2026-04-21 23:40 | 19.38729 | -66.47946 | 23610 ft | 456 kts | 157° |
| 2026-04-21 23:40 | 19.35906 | -66.46468 | 22861 ft | 449 kts | 157° |
| 2026-04-21 23:40 | 19.33142 | -66.45022 | 22229 ft | 441 kts | 157° |
| 2026-04-21 23:41 | 19.30432 | -66.43605 | 21616 ft | 433 kts | 156° |
| 2026-04-21 23:41 | 19.27750 | -66.42204 | 21005 ft | 427 kts | 156° |
| 2026-04-21 23:41 | 19.25092 | -66.40817 | 20402 ft | 423 kts | 156° |
| 2026-04-21 23:41 | 19.22475 | -66.39449 | 19792 ft | 419 kts | 156° |
| 2026-04-21 23:42 | 19.19869 | -66.38084 | 19175 ft | 416 kts | 155° |
| 2026-04-21 23:42 | 19.17280 | -66.36727 | 18540 ft | 414 kts | 155° |
| 2026-04-21 23:42 | 19.14700 | -66.35378 | 17836 ft | 412 kts | 155° |
| 2026-04-21 23:42 | 19.12126 | -66.34091 | 17198 ft | 407 kts | 160° |
| 2026-04-21 23:43 | 19.09442 | -66.33236 | 16577 ft | 400 kts | 170° |
| 2026-04-21 23:43 | 19.06727 | -66.32697 | 15948 ft | 395 kts | 171° |
| 2026-04-21 23:43 | 19.04045 | -66.32163 | 15331 ft | 390 kts | 171° |
| 2026-04-21 23:43 | 19.01391 | -66.31628 | 14708 ft | 385 kts | 171° |
| 2026-04-21 23:44 | 18.98777 | -66.31097 | 14091 ft | 381 kts | 170° |
| 2026-04-21 23:44 | 18.96182 | -66.30572 | 13411 ft | 378 kts | 170° |
| 2026-04-21 23:44 | 18.93613 | -66.30053 | 12749 ft | 374 kts | 170° |
| 2026-04-21 23:44 | 18.91071 | -66.29540 | 12139 ft | 369 kts | 170° |
| 2026-04-21 23:45 | 18.88561 | -66.29034 | 11527 ft | 365 kts | 170° |
| 2026-04-21 23:45 | 18.83622 | -66.28042 | 10398 ft | 356 kts | 169° |
| 2026-04-21 23:45 | 18.81218 | -66.27558 | 10268 ft | 339 kts | 169° |
| 2026-04-21 23:46 | 18.78951 | -66.27100 | 10152 ft | 324 kts | 169° |
| 2026-04-21 23:46 | 18.76787 | -66.26661 | 10024 ft | 311 kts | 169° |
| 2026-04-21 23:46 | 18.74693 | -66.26239 | 9776 ft | 304 kts | 169° |
| 2026-04-21 23:46 | 18.72600 | -66.25817 | 9277 ft | 306 kts | 169° |
| 2026-04-21 23:47 | 18.70526 | -66.25400 | 8952 ft | 301 kts | 169° |
| 2026-04-21 23:47 | 18.68481 | -66.24988 | 8540 ft | 299 kts | 169° |
| 2026-04-21 23:47 | 18.66461 | -66.24582 | 7909 ft | 293 kts | 169° |
| 2026-04-21 23:47 | 18.64474 | -66.24183 | 7237 ft | 290 kts | 169° |
| 2026-04-21 23:48 | 18.62509 | -66.23791 | 6645 ft | 284 kts | 170° |
| 2026-04-21 23:48 | 18.60614 | -66.23411 | 6133 ft | 277 kts | 170° |
| 2026-04-21 23:48 | 18.58721 | -66.23033 | 5641 ft | 277 kts | 169° |
| 2026-04-21 23:48 | 18.56835 | -66.22656 | 5160 ft | 275 kts | 169° |
| 2026-04-21 23:49 | 18.54958 | -66.22280 | 4675 ft | 274 kts | 169° |
| 2026-04-21 23:49 | 18.53094 | -66.21907 | 4193 ft | 272 kts | 169° |
| 2026-04-21 23:49 | 18.51267 | -66.21541 | 3965 ft | 255 kts | 168° |
| 2026-04-21 23:49 | 18.49607 | -66.21206 | 3903 ft | 230 kts | 168° |
| 2026-04-21 23:50 | 18.48132 | -66.20779 | 3680 ft | 214 kts | 152° |
| 2026-04-21 23:50 | 18.46998 | -66.19815 | 3396 ft | 209 kts | 125° |
| 2026-04-21 23:50 | 18.46376 | -66.18465 | 3120 ft | 204 kts | 106° |
| 2026-04-21 23:50 | 18.45751 | -66.17136 | 2850 ft | 202 kts | 122° |
| 2026-04-21 23:51 | 18.44920 | -66.15962 | 2590 ft | 199 kts | 126° |
| 2026-04-21 23:51 | 18.44062 | -66.14821 | 2332 ft | 197 kts | 124° |
| 2026-04-21 23:51 | 18.43467 | -66.13573 | 2174 ft | 186 kts | 102° |
| 2026-04-21 23:51 | 18.43370 | -66.12147 | 1966 ft | 203 kts | 89° |
| 2026-04-21 23:52 | 18.43372 | -66.10730 | 1719 ft | 184 kts | 89° |
| 2026-04-21 23:52 | 18.43371 | -66.09435 | 1487 ft | 170 kts | 89° |
| 2026-04-21 23:52 | 18.43369 | -66.08266 | 1292 ft | 146 kts | 89° |
| 2026-04-21 23:52 | 18.43366 | -66.07257 | 1117 ft | 131 kts | 88° |
| 2026-04-21 23:53 | 18.43364 | -66.06323 | 959 ft | 129 kts | 88° |
| 2026-04-21 23:53 | 18.43363 | -66.05394 | 795 ft | 125 kts | 89° |
| 2026-04-21 23:53 | 18.43362 | -66.04450 | 639 ft | 133 kts | 87° |
| 2026-04-21 23:53 | 18.43362 | -66.03466 | 449 ft | 137 kts | 89° |
| 2026-04-21 23:54 | 18.43362 | -66.02468 | 248 ft | 132 kts | 89° |
| 2026-04-21 23:54 | 18.43361 | -66.01522 | 68 ft | 126 kts | 89° |
| 2026-04-21 23:54 | 18.43350 | -66.00630 | -33 ft | 114 kts | 83° |
| 2026-04-21 23:54 | 18.43359 | -66.00077 | -39 ft | 46 kts | 87° |
| 2026-04-21 23:55 | 18.43456 | -65.99910 | -31 ft | 18 kts | 336° |
| 2026-04-21 23:55 | 18.43599 | -65.99962 | -24 ft | 28 kts | 331° |
| 2026-04-21 23:55 | 18.43760 | -66.00072 | -27 ft | 25 kts | 283° |
| 2026-04-21 23:55 | 18.43802 | -66.00140 | -26 ft | 4 kts | 315° |
| 2026-04-21 23:56 | 18.43830 | -66.00160 | -26 ft | 1 kts | 325° |